createdAt,value
2018-12-01T00:00:42.452Z,5.80
2018-12-01T00:05:45.690Z,6.07
2018-12-01T00:10:48.919Z,6.03
2018-12-01T00:15:52.166Z,5.97
2018-12-01T00:20:55.477Z,6.00
2018-12-01T00:25:58.702Z,5.57
2018-12-01T00:31:01.910Z,5.13
2018-12-01T00:36:05.238Z,4.70
2018-12-01T00:41:08.438Z,4.70
2018-12-01T00:46:11.670Z,4.83
2018-12-01T00:51:14.966Z,6.17
2018-12-01T00:56:18.219Z,6.07
2018-12-01T01:01:21.502Z,6.60
2018-12-01T01:06:24.742Z,4.23
2018-12-01T01:11:28.002Z,5.13
2018-12-01T01:16:31.242Z,5.47
2018-12-01T01:21:34.490Z,5.63
2018-12-01T01:26:37.734Z,5.57
2018-12-01T01:31:40.963Z,5.30
2018-12-01T01:36:44.233Z,5.80
2018-12-01T01:41:47.469Z,5.10
2018-12-01T01:46:50.738Z,5.63
2018-12-01T01:51:53.974Z,4.87
2018-12-01T01:56:57.227Z,5.27
2018-12-01T02:02:00.489Z,5.23
2018-12-01T02:07:03.746Z,5.60
2018-12-01T02:12:06.974Z,4.50
2018-12-01T02:17:10.218Z,5.13
2018-12-01T02:22:13.462Z,4.70
2018-12-01T02:27:17.270Z,4.07
2018-12-01T02:32:20.498Z,5.07
2018-12-01T02:37:23.758Z,4.77
2018-12-01T02:42:27.000Z,4.17
2018-12-01T02:47:30.254Z,4.50
2018-12-01T02:52:33.461Z,4.13
2018-12-01T02:57:36.664Z,4.10
2018-12-01T03:02:39.893Z,3.90
2018-12-01T03:07:43.063Z,4.23
2018-12-01T03:12:46.293Z,5.07
2018-12-01T03:17:50.602Z,4.53
2018-12-01T03:22:53.781Z,4.03
2018-12-01T03:27:56.966Z,3.57
2018-12-01T03:33:00.174Z,3.90
2018-12-01T03:38:03.326Z,3.97
2018-12-01T03:43:06.925Z,3.90
2018-12-01T03:48:10.096Z,3.50
2018-12-01T03:53:13.322Z,3.70
2018-12-01T03:58:16.585Z,3.13
2018-12-01T04:03:19.962Z,4.23
2018-12-01T04:08:23.129Z,4.50
2018-12-01T04:13:26.326Z,4.10
2018-12-01T04:18:29.532Z,3.17
2018-12-01T04:23:32.706Z,4.23
2018-12-01T04:28:35.889Z,3.30
2018-12-01T04:33:39.386Z,3.50
2018-12-01T04:38:42.558Z,3.50
2018-12-01T04:43:45.794Z,4.27
2018-12-01T04:48:48.994Z,3.90
2018-12-01T04:53:52.186Z,3.10
2018-12-01T04:58:55.382Z,3.20
2018-12-01T05:03:58.585Z,4.33
2018-12-01T05:09:01.782Z,3.47
2018-12-01T05:14:04.993Z,4.40
2018-12-01T05:19:08.212Z,3.73
2018-12-01T05:24:11.444Z,2.30
2018-12-01T05:29:14.663Z,3.70
2018-12-01T05:34:17.858Z,2.70
2018-12-01T05:39:21.051Z,3.80
2018-12-01T05:44:24.248Z,3.83
2018-12-01T05:49:27.485Z,3.23
2018-12-01T05:54:30.706Z,2.93
2018-12-01T05:59:33.922Z,2.90
2018-12-01T06:04:37.135Z,3.03
2018-12-01T06:09:40.331Z,3.37
2018-12-01T06:14:43.534Z,3.70
2018-12-01T06:19:46.732Z,3.10
2018-12-01T06:24:49.909Z,3.00
2018-12-01T06:29:53.118Z,3.57
2018-12-01T06:34:56.290Z,2.97
2018-12-01T06:39:59.549Z,3.00
2018-12-01T06:45:02.706Z,3.27
2018-12-01T06:50:08.277Z,3.13
2018-12-01T06:55:12.624Z,2.77
2018-12-01T07:00:18.086Z,2.93
2018-12-01T07:05:21.278Z,3.13
2018-12-01T07:10:24.476Z,3.23
2018-12-01T07:15:33.217Z,3.80
2018-12-01T07:20:36.450Z,4.33
2018-12-01T07:25:39.717Z,3.90
2018-12-01T07:30:42.923Z,2.87
2018-12-01T07:35:46.130Z,3.60
2018-12-01T07:40:49.354Z,4.10
2018-12-01T07:45:52.632Z,4.10
2018-12-01T07:50:55.865Z,3.37
2018-12-01T07:55:59.060Z,3.63
2018-12-01T08:01:02.284Z,3.67
2018-12-01T08:06:05.793Z,3.63
2018-12-01T08:11:09.010Z,4.03
2018-12-01T08:16:12.207Z,3.90
2018-12-01T08:21:15.439Z,3.37
2018-12-01T08:26:18.723Z,3.13
2018-12-01T08:31:21.925Z,3.43
2018-12-01T08:36:25.120Z,3.53
2018-12-01T08:41:28.325Z,3.10
2018-12-01T08:46:31.723Z,3.43
2018-12-01T08:51:35.678Z,3.00
2018-12-01T08:56:38.910Z,3.23
2018-12-01T09:01:42.157Z,2.67
2018-12-01T09:06:45.405Z,3.20
2018-12-01T09:11:50.496Z,3.17
2018-12-01T09:16:54.173Z,3.23
2018-12-01T09:21:57.406Z,4.83
2018-12-01T09:27:00.623Z,2.87
2018-12-01T09:32:03.841Z,3.53
2018-12-01T09:37:12.068Z,2.77
2018-12-01T09:42:15.374Z,2.83
2018-12-01T09:47:18.598Z,4.67
2018-12-01T09:52:21.854Z,4.20
2018-12-01T09:57:26.850Z,6.37
2018-12-01T10:02:30.154Z,6.30
2018-12-01T10:07:33.339Z,4.93
2018-12-01T10:12:36.561Z,4.00
2018-12-01T10:17:39.967Z,3.90
2018-12-01T10:22:43.849Z,3.50
2018-12-01T10:27:47.413Z,3.70
2018-12-01T10:32:51.840Z,3.67
2018-12-01T10:37:56.678Z,2.93
2018-12-01T10:43:00.045Z,3.50
2018-12-01T10:48:03.290Z,3.60
2018-12-01T10:53:07.021Z,2.97
2018-12-01T10:58:16.771Z,3.80
2018-12-01T11:03:25.546Z,2.97
2018-12-01T11:08:29.348Z,3.10
2018-12-01T11:13:32.758Z,2.83
2018-12-01T11:18:36.038Z,2.97
2018-12-01T11:23:39.274Z,3.30
2018-12-01T11:28:43.214Z,2.70
2018-12-01T11:33:46.493Z,3.30
2018-12-01T11:38:49.706Z,3.17
2018-12-01T11:43:52.916Z,4.20
2018-12-01T11:48:56.117Z,3.13
2018-12-01T11:53:59.326Z,2.70
2018-12-01T11:59:02.563Z,3.80
2018-12-01T12:04:06.237Z,3.67
2018-12-01T12:09:09.456Z,4.07
2018-12-01T12:14:12.654Z,3.47
2018-12-01T12:19:15.883Z,3.10
2018-12-01T12:24:19.092Z,2.90
2018-12-01T12:29:22.282Z,3.10
2018-12-01T12:34:25.495Z,3.33
2018-12-01T12:39:28.687Z,3.03
2018-12-01T12:44:31.894Z,3.20
2018-12-01T12:49:35.122Z,3.47
2018-12-01T12:54:38.423Z,2.77
2018-12-01T12:59:41.622Z,3.10
2018-12-01T13:04:44.850Z,4.60
2018-12-01T13:09:48.044Z,4.20
2018-12-01T13:14:51.259Z,3.80
2018-12-01T13:19:54.583Z,3.40
2018-12-01T13:24:57.785Z,2.77
2018-12-01T13:30:01.005Z,2.67
2018-12-01T13:35:04.248Z,1.90
2018-12-01T13:40:09.607Z,2.13
2018-12-01T13:45:14.978Z,3.00
2018-12-01T13:50:20.765Z,3.17
2018-12-01T13:55:23.974Z,3.23
2018-12-01T14:00:27.883Z,2.07
2018-12-01T14:05:31.095Z,2.50
2018-12-01T14:10:35.375Z,2.57
2018-12-01T14:15:38.581Z,2.50
2018-12-01T14:20:41.765Z,2.33
2018-12-01T14:25:45.006Z,2.60
2018-12-01T14:30:48.205Z,2.77
2018-12-01T14:35:51.403Z,1.87
2018-12-01T14:40:54.678Z,2.30
2018-12-01T14:45:57.930Z,1.90
2018-12-01T14:51:01.158Z,2.57
2018-12-01T14:56:04.431Z,2.30
2018-12-01T15:01:07.613Z,3.03
2018-12-01T15:06:10.899Z,2.30
2018-12-01T15:11:14.060Z,2.57
2018-12-01T15:16:17.227Z,2.30
2018-12-01T15:21:20.808Z,2.57
2018-12-01T15:26:24.043Z,2.77
2018-12-01T15:31:27.213Z,2.50
2018-12-01T15:36:30.454Z,2.00
2018-12-01T15:41:33.669Z,2.50
2018-12-01T15:46:36.917Z,2.50
2018-12-01T15:51:40.278Z,1.93
2018-12-01T15:56:43.578Z,2.17
2018-12-01T16:01:46.751Z,2.17
2018-12-01T16:06:49.926Z,2.00
2018-12-01T16:11:53.238Z,2.23
2018-12-01T16:16:56.474Z,2.92
2018-12-01T16:21:59.755Z,2.30
2018-12-01T16:27:02.977Z,2.23
2018-12-01T16:32:06.626Z,3.10
2018-12-01T16:37:09.905Z,2.67
2018-12-01T16:42:13.150Z,2.60
2018-12-01T16:47:16.391Z,2.10
2018-12-01T16:52:19.602Z,2.40
2018-12-01T16:57:22.822Z,2.70
2018-12-01T17:02:26.057Z,2.70
2018-12-01T17:07:29.330Z,2.10
2018-12-01T17:12:32.573Z,2.03
2018-12-01T17:17:35.836Z,2.57
2018-12-01T17:22:39.174Z,2.37
2018-12-01T17:27:43.181Z,2.30
2018-12-01T17:32:46.469Z,2.30
2018-12-01T17:37:53.674Z,2.70
2018-12-01T17:42:57.782Z,1.80
2018-12-01T17:48:01.730Z,1.93
2018-12-01T17:53:10.175Z,2.07
2018-12-01T17:58:09.890Z,1.67
2018-12-01T18:03:16.496Z,2.77
2018-12-01T18:08:21.779Z,2.10
2018-12-01T18:13:25.254Z,5.40
2018-12-01T18:18:29.950Z,6.10
2018-12-01T18:23:33.547Z,5.92
2018-12-01T18:28:47.157Z,5.67
2018-12-01T18:34:00.147Z,5.13
2018-12-01T18:39:05.719Z,3.80
2018-12-01T18:44:08.946Z,12.37
2018-12-01T18:49:13.266Z,10.97
2018-12-01T18:54:16.589Z,9.18
2018-12-01T18:59:19.790Z,5.20
2018-12-01T19:04:23.003Z,4.43
2018-12-01T19:09:26.205Z,3.17
2018-12-01T19:14:29.397Z,3.47
2018-12-01T19:19:32.615Z,2.73
2018-12-01T19:24:35.816Z,10.70
2018-12-01T19:29:39.037Z,4.00
2018-12-01T19:34:42.314Z,2.97
2018-12-01T19:39:45.532Z,4.07
2018-12-01T19:44:51.412Z,3.73
2018-12-01T19:49:54.962Z,2.70
2018-12-01T19:54:58.295Z,2.20
2018-12-01T20:00:01.643Z,1.90
2018-12-01T20:05:07.644Z,2.67
2018-12-01T20:10:13.166Z,1.83
2018-12-01T20:15:22.418Z,2.13
2018-12-01T20:20:25.622Z,1.53
2018-12-01T20:25:28.812Z,2.13
2018-12-01T20:30:32.058Z,1.80
2018-12-01T20:35:43.151Z,2.43
2018-12-01T20:40:46.351Z,1.70
2018-12-01T20:45:49.562Z,2.33
2018-12-01T20:50:52.777Z,1.90
2018-12-01T20:55:57.605Z,1.90
2018-12-01T21:01:01.638Z,2.10
2018-12-01T21:06:04.878Z,1.90
2018-12-01T21:11:10.334Z,1.70
2018-12-01T21:16:13.529Z,1.50
2018-12-01T21:21:16.750Z,2.00
2018-12-01T21:26:19.965Z,1.37
2018-12-01T21:31:23.158Z,1.40
2018-12-01T21:36:26.352Z,1.17
2018-12-01T21:41:29.573Z,1.33
2018-12-01T21:46:32.758Z,1.30
2018-12-01T21:51:35.955Z,1.40
2018-12-01T21:56:39.163Z,1.40
2018-12-01T22:01:42.350Z,1.50
2018-12-01T22:06:45.544Z,1.57
2018-12-01T22:11:48.747Z,1.10
2018-12-01T22:16:51.947Z,1.50
2018-12-01T22:21:55.111Z,1.23
2018-12-01T22:26:58.295Z,1.27
2018-12-01T22:32:02.484Z,1.50
2018-12-01T22:37:05.859Z,1.30
2018-12-01T22:42:09.034Z,1.53
2018-12-01T22:47:12.213Z,1.30
2018-12-01T22:52:15.370Z,1.60
2018-12-01T22:57:18.589Z,1.90
2018-12-01T23:02:21.803Z,0.80
2018-12-01T23:07:24.991Z,1.37
2018-12-01T23:12:28.221Z,1.27
2018-12-01T23:17:31.498Z,1.13
2018-12-01T23:22:34.686Z,1.20
2018-12-01T23:27:38.374Z,1.10
2018-12-01T23:32:41.562Z,1.00
2018-12-01T23:37:44.747Z,1.37
2018-12-01T23:42:47.914Z,1.30
2018-12-01T23:47:51.107Z,1.10
2018-12-01T23:52:57.443Z,1.00
2018-12-01T23:58:00.619Z,1.33
